Startpagina
METAR-TAF:

METAR-TAF

Vliegvelden :

Koeweit, Koeweit

breedte: 29-13N, lengte: 047-59E, hoogte: 55 m

Actueel weer

Dit bericht is 10 minuten geleden gemaakt, om 21:00 UTC
Wind 13 kt uit het noordnoordwesten
Temperatuur 38°C
Vochtigheid 17%
Druk 998 hPa
Zicht: 5000 m
(lichte) verspreid stof

METAR: OKBK 212100Z 34013KT 5000 -DU NSC 38/09 Q0998 NOSIG

Tijdstip: 00:10 (21:10 UTC)

Verwachting

Dit bericht is 4 uur en het 25 minuten geleden gemaakt, om 16:45 UTC
Verwachting geldig van 21 om 18 UTC tot 22 om 24 UTC
Wind 10 kt uit het noordnoordwesten met uitschieters tot 20 kt
Zicht: 2000 m
Stuifstof
Tijdelijke
van 21 om 18 UTC tot 21 om 23 UTC
Zicht: 7000 m
Onbewolkt

TAF: OKBK 211645Z 2118/2224 34010G20KT 2000 BLDU NSC TEMPO 2118/2123 7000 SKC

Waarnemingen en weersverwachtingen van meer dan 4000 vliegvelden (METAR en TAF).

De beschikbare stations zijn de gele en rode punten op de kaart.

Ga met uw muis naar het station om de naam te zien.

Klik dan om waarnemingen en weersverwachtingen te zien.

kaart wijzigen: klik op de groene knoppen met een zwart kruis om in te zoomen, op de groene knop met een streepje om uit te zoomen of op de groene pijlen voor aangrenzende kaarten.


METAR-TAF: